Time;durP1;ratioP1;P1;durP2;ratioP2;P2;SDS_P1;SDS_P2;PMS_P1;PMS_P2;Temp;Humidity;BMP_temperature;BMP_pressure;BME280_temperature;BME280_humidity;BME280_pressure;Samples;Min_cycle;Max_cycle;Signal;HPM_P1;HPM_P2
2022/09/03 00:00:08;;;;;;;1.23;1.05;;;16.00;30.10;;;;;;4979087;28;21109;-60
2022/09/03 00:02:42;;;;;;;1.20;1.10;;;16.00;52.50;;;;;;4979569;28;20218;-60
2022/09/03 00:05:17;;;;;;;1.33;1.20;;;15.70;99.90;;;;;;4993506;28;20219;-60
2022/09/03 00:07:51;;;;;;;1.20;1.10;;;15.90;70.70;;;;;;4999177;28;20201;-60
2022/09/03 00:10:22;;;;;;;1.15;1.05;;;15.90;52.30;;;;;;5010484;28;20198;-60
2022/09/03 00:12:52;;;;;;;1.15;1.05;;;16.00;78.70;;;;;;5002646;28;20198;-60
2022/09/03 00:15:21;;;;;;;1.10;0.98;;;16.60;99.90;;;;;;5000875;28;20786;-60
2022/09/03 00:17:54;;;;;;;1.25;1.00;;;15.90;72.50;;;;;;4999271;28;20209;-60
2022/09/03 00:20:26;;;;;;;3.33;0.85;;;15.90;58.40;;;;;;4995697;28;20245;-60
2022/09/03 00:22:55;;;;;;;2.92;1.10;;;15.70;99.90;;;;;;4994800;28;20202;-60
2022/09/03 00:25:26;;;;;;;2.15;1.20;;;15.50;66.70;;;;;;5010787;28;20572;-60
2022/09/03 00:27:56;;;;;;;2.35;1.20;;;15.90;90.60;;;;;;5001803;28;20205;-60
2022/09/03 00:30:25;;;;;;;1.17;1.05;;;15.90;94.40;;;;;;5001129;28;20210;-60
2022/09/03 00:32:59;;;;;;;1.13;1.02;;;15.80;99.90;;;;;;4991543;28;20261;-60
2022/09/03 00:35:30;;;;;;;4.22;1.30;;;15.20;90.50;;;;;;5010807;28;20197;-60
2022/09/03 00:37:57;;;;;;;1.52;1.20;;;15.70;99.80;;;;;;4987010;28;20202;-60
2022/09/03 00:40:54;;;;;;;1.13;1.02;;;15.90;99.90;;;;;;5007833;28;20212;-60
2022/09/03 00:43:31;;;;;;;2.33;1.38;;;15.70;96.80;;;;;;5007150;28;20297;-60
2022/09/03 00:46:06;;;;;;;1.02;0.93;;;15.50;99.90;;;;;;4997309;28;20695;-60
2022/09/03 00:48:47;;;;;;;0.90;0.90;;;15.60;99.90;;;;;;4985130;28;20240;-60
2022/09/03 00:51:28;;;;;;;1.23;1.10;;;15.60;99.90;;;;;;5006799;28;20232;-60
2022/09/03 00:54:02;;;;;;;3.58;1.30;;;15.60;99.90;;;;;;4987936;28;20219;-60
2022/09/03 00:56:39;;;;;;;1.13;1.02;;;15.60;99.90;;;;;;5010875;28;20201;-60
2022/09/03 00:59:21;;;;;;;4.88;1.17;;;15.30;99.90;;;;;;5000667;28;20202;-60
2022/09/03 01:02:00;;;;;;;1.67;1.13;;;15.50;99.90;;;;;;4997171;28;20695;-60
2022/09/03 01:04:41;;;;;;;1.25;1.15;;;15.80;99.90;;;;;;4990212;28;20237;-60
2022/09/03 01:07:19;;;;;;;4.63;1.20;;;15.50;99.90;;;;;;5007397;28;20230;-60
2022/09/03 01:09:52;;;;;;;4.38;1.00;;;15.50;99.90;;;;;;4995903;28;21041;-60
2022/09/03 01:12:33;;;;;;;2.28;1.25;;;15.70;99.90;;;;;;5001035;28;20786;-60
2022/09/03 01:15:08;;;;;;;1.35;1.20;;;15.50;99.90;;;;;;4995071;28;20903;-60
2022/09/03 01:17:46;;;;;;;1.30;1.20;;;15.40;99.90;;;;;;5000876;28;20221;-60
2022/09/03 01:20:35;;;;;;;1.30;1.00;;;15.40;99.90;;;;;;4985014;28;21144;-60
2022/09/03 01:23:34;;;;;;;1.63;1.20;;;15.20;99.90;;;;;;5004629;28;20203;-60
2022/09/03 01:26:15;;;;;;;1.20;1.10;;;15.40;99.90;;;;;;4989746;28;20199;-60
2022/09/03 01:28:55;;;;;;;1.60;1.20;;;15.50;99.90;;;;;;4999144;28;20209;-60
2022/09/03 01:31:34;;;;;;;1.02;0.93;;;15.30;99.90;;;;;;4995170;28;20889;-60
2022/09/03 01:34:13;;;;;;;1.30;1.20;;;15.30;99.90;;;;;;5001565;28;21020;-60
2022/09/03 01:36:51;;;;;;;1.05;0.95;;;15.40;99.90;;;;;;4984688;28;20221;-60
2022/09/03 01:39:26;;;;;;;1.58;1.33;;;15.30;99.90;;;;;;5008563;28;20194;-60
2022/09/03 01:42:14;;;;;;;1.20;1.13;;;15.30;99.90;;;;;;4997557;28;20206;-60
2022/09/03 01:45:05;;;;;;;1.30;1.20;;;15.20;99.90;;;;;;5005049;28;20210;-60
2022/09/03 01:47:48;;;;;;;1.30;1.20;;;15.20;99.90;;;;;;4996483;28;20294;-60
2022/09/03 01:50:25;;;;;;;2.40;1.40;;;15.20;99.90;;;;;;5005957;28;20197;-60
2022/09/03 01:52:56;;;;;;;1.10;1.02;;;15.10;99.90;;;;;;4977511;28;20226;-60
2022/09/03 01:55:32;;;;;;;0.80;0.80;;;15.30;99.90;;;;;;5008396;28;20216;-61
2022/09/03 01:58:05;;;;;;;1.70;1.30;;;15.10;99.90;;;;;;4995301;28;20205;-60
2022/09/03 02:00:37;;;;;;;1.23;1.13;;;15.10;99.90;;;;;;4988489;28;20206;-60
2022/09/03 02:03:06;;;;;;;1.00;0.98;;;15.10;99.90;;;;;;4997072;28;20301;-60
2022/09/03 02:05:34;;;;;;;2.13;1.25;;;14.80;99.90;;;;;;4998207;28;20213;-60
2022/09/03 02:08:04;;;;;;;1.50;1.40;;;15.00;99.90;;;;;;4978298;28;20309;-60
2022/09/03 02:10:38;;;;;;;1.45;1.35;;;14.90;99.90;;;;;;4996747;28;20198;-60
2022/09/03 02:13:07;;;;;;;1.63;1.30;;;15.00;99.90;;;;;;4993550;28;20223;-60
2022/09/03 02:15:39;;;;;;;1.40;1.30;;;15.10;99.90;;;;;;5000639;28;20216;-60
2022/09/03 02:18:10;;;;;;;2.40;1.20;;;15.00;99.90;;;;;;4980930;28;20225;-60
2022/09/03 02:20:38;;;;;;;1.58;1.30;;;15.00;99.90;;;;;;5009731;28;20275;-60
2022/09/03 02:23:05;;;;;;;4.72;2.28;;;14.90;99.90;;;;;;4981299;28;20209;-60
2022/09/03 02:25:37;;;;;;;4.40;1.58;;;15.10;99.90;;;;;;4996819;28;20206;-60
2022/09/03 02:28:05;;;;;;;1.83;1.45;;;14.90;99.90;;;;;;4996132;28;20394;-60
2022/09/03 02:30:32;;;;;;;1.30;1.20;;;14.90;99.90;;;;;;4999911;28;20208;-60
2022/09/03 02:33:01;;;;;;;1.85;1.50;;;14.90;99.90;;;;;;4996560;28;20259;-60
2022/09/03 02:35:27;;;;;;;1.25;1.08;;;14.70;99.90;;;;;;5000380;28;20237;-60
2022/09/03 02:37:54;;;;;;;2.95;1.50;;;14.60;99.90;;;;;;4985361;28;20217;-60
2022/09/03 02:40:21;;;;;;;3.03;1.48;;;14.70;99.90;;;;;;5002308;28;20194;-60
2022/09/03 02:42:48;;;;;;;1.23;1.13;;;14.60;99.90;;;;;;4989180;28;20202;-60
2022/09/03 02:45:23;;;;;;;1.42;1.33;;;14.70;99.90;;;;;;4997878;28;20203;-60
2022/09/03 02:47:54;;;;;;;1.25;1.15;;;14.60;99.90;;;;;;4987037;28;20702;-60
2022/09/03 02:50:22;;;;;;;1.35;1.25;;;14.60;99.90;;;;;;4999703;28;20585;-60
2022/09/03 02:52:49;;;;;;;2.17;1.30;;;14.60;99.90;;;;;;4992755;28;20232;-60
2022/09/03 02:55:16;;;;;;;1.55;1.23;;;14.50;99.90;;;;;;4996473;28;20236;-60
2022/09/03 02:57:42;;;;;;;1.23;1.10;;;14.60;99.90;;;;;;4998782;28;20663;-60
2022/09/03 03:00:10;;;;;;;2.40;1.60;;;14.50;99.90;;;;;;4995289;28;20201;-60
2022/09/03 03:02:37;;;;;;;2.35;1.10;;;14.50;99.90;;;;;;5001803;28;20214;-60
2022/09/03 03:05:04;;;;;;;1.40;1.30;;;14.50;99.90;;;;;;4984588;28;20217;-60
2022/09/03 03:07:39;;;;;;;2.15;1.45;;;14.50;99.90;;;;;;5011681;28;20252;-60
2022/09/03 03:10:07;;;;;;;1.67;1.17;;;14.50;99.90;;;;;;4983794;28;20206;-60
2022/09/03 03:12:34;;;;;;;1.35;1.25;;;14.30;99.90;;;;;;4995709;28;20244;-60
2022/09/03 03:15:00;;;;;;;1.20;1.10;;;15.10;99.90;;;;;;4992318;28;20203;-60
2022/09/03 03:17:28;;;;;;;2.03;1.60;;;14.60;99.90;;;;;;5001929;28;20202;-60
2022/09/03 03:19:54;;;;;;;1.10;1.00;;;14.40;99.90;;;;;;4987265;28;20198;-60
2022/09/03 03:22:21;;;;;;;1.58;1.17;;;14.30;99.90;;;;;;5007275;28;20209;-60
2022/09/03 03:24:51;;;;;;;1.98;1.40;;;14.30;99.90;;;;;;4986267;28;20210;-60
2022/09/03 03:27:19;;;;;;;1.67;1.30;;;14.30;99.90;;;;;;5006758;28;20619;-60
2022/09/03 03:29:45;;;;;;;3.28;1.38;;;14.50;99.90;;;;;;4992956;28;20210;-60
2022/09/03 03:32:12;;;;;;;1.83;1.20;;;15.10;99.90;;;;;;4996626;28;20229;-60
2022/09/03 03:34:39;;;;;;;1.58;1.27;;;14.90;99.90;;;;;;4989170;28;20202;-60
2022/09/03 03:37:06;;;;;;;1.45;1.27;;;14.10;1.00;;;;;;4993510;28;20198;-60
2022/09/03 03:39:33;;;;;;;2.72;1.50;;;14.30;99.90;;;;;;4982389;28;20695;-60
2022/09/03 03:42:01;;;;;;;4.22;1.50;;;13.60;99.90;;;;;;5001767;28;20656;-60
2022/09/03 03:44:28;;;;;;;1.40;1.30;;;14.30;99.90;;;;;;4997515;28;20201;-60
2022/09/03 03:46:55;;;;;;;1.60;1.20;;;14.40;99.90;;;;;;4993773;28;20206;-60
2022/09/03 03:49:22;;;;;;;1.40;1.05;;;14.30;99.90;;;;;;4996879;28;20206;-60
2022/09/03 03:51:49;;;;;;;1.30;1.20;;;14.20;99.90;;;;;;4992345;28;20226;-62
2022/09/03 03:54:15;;;;;;;1.45;1.35;;;14.30;1.00;;;;;;5004565;28;20306;-60
2022/09/03 03:56:42;;;;;;;2.30;1.45;;;14.20;99.90;;;;;;4980535;28;20217;-60
2022/09/03 03:59:10;;;;;;;4.65;1.25;;;13.90;99.90;;;;;;4989537;28;20213;-60
2022/09/03 04:01:37;;;;;;;2.60;1.40;;;14.20;99.90;;;;;;4993757;28;20205;-60
2022/09/03 04:04:04;;;;;;;6.43;1.40;;;14.20;99.90;;;;;;4997043;28;20202;-60
2022/09/03 04:06:31;;;;;;;2.50;1.48;;;14.20;99.90;;;;;;4996249;28;20212;-60
2022/09/03 04:08:58;;;;;;;1.30;1.20;;;14.20;99.90;;;;;;4991669;28;20209;-60
2022/09/03 04:11:25;;;;;;;1.20;1.10;;;14.20;1.00;;;;;;4984073;28;20221;-60
2022/09/03 04:13:53;;;;;;;1.67;1.30;;;14.20;99.90;;;;;;4995168;28;20671;-60
2022/09/03 04:16:23;;;;;;;1.95;1.42;;;14.30;1.00;;;;;;5006290;28;20190;-60
2022/09/03 04:18:51;;;;;;;1.38;1.23;;;14.10;99.90;;;;;;4995092;28;20209;-60
2022/09/03 04:21:20;;;;;;;2.65;1.40;;;14.20;1.00;;;;;;4985515;28;20234;-59
2022/09/03 04:23:48;;;;;;;1.42;1.33;;;14.10;99.90;;;;;;4998200;28;20220;-60
2022/09/03 04:26:17;;;;;;;2.05;1.38;;;14.10;99.90;;;;;;5006456;28;20209;-60
2022/09/03 04:28:44;;;;;;;2.15;1.48;;;14.00;1.00;;;;;;4980498;28;20209;-60
2022/09/03 04:31:13;;;;;;;1.50;1.20;;;14.10;1.00;;;;;;5002927;28;20303;-60
2022/09/03 04:33:42;;;;;;;1.20;1.10;;;14.00;99.90;;;;;;4996811;28;20249;-61
2022/09/03 04:36:11;;;;;;;2.55;1.23;;;16.00;99.90;;;;;;4986700;28;20220;-61
2022/09/03 04:38:39;;;;;;;2.70;1.40;;;14.00;99.90;;;;;;5006038;28;20206;-60
2022/09/03 04:41:07;;;;;;;2.25;1.30;;;14.20;1.00;;;;;;4992952;28;20214;-60
2022/09/03 04:43:34;;;;;;;4.25;1.42;;;13.90;99.90;;;;;;4982972;28;20223;-60
2022/09/03 04:46:03;;;;;;;2.90;1.40;;;13.70;1.00;;;;;;4994885;28;20225;-60
2022/09/03 04:48:32;;;;;;;2.92;1.95;;;13.90;99.90;;;;;;5000387;28;20203;-60
2022/09/03 04:51:05;;;;;;;3.13;2.10;;;13.90;99.90;;;;;;4993429;28;20195;-60
2022/09/03 04:53:33;;;;;;;2.83;1.50;;;13.90;1.00;;;;;;4996624;28;20256;-62
2022/09/03 04:55:59;;;;;;;1.52;1.20;;;13.80;1.00;;;;;;4997078;28;20206;-60
2022/09/03 04:58:26;;;;;;;1.30;1.20;;;13.80;1.00;;;;;;4985769;28;20221;-60
2022/09/03 05:00:53;;;;;;;5.00;1.30;;;13.80;1.00;;;;;;4998624;28;20198;-60
2022/09/03 05:03:21;;;;;;;1.52;1.40;;;13.60;1.00;;;;;;5007866;28;20213;-60
2022/09/03 05:05:57;;;;;;;1.92;1.48;;;13.90;1.00;;;;;;4999632;28;20671;-60
2022/09/03 05:08:25;;;;;;;1.35;1.20;;;13.90;1.00;;;;;;4997331;28;20212;-60
2022/09/03 05:10:59;;;;;;;1.77;1.67;;;13.90;1.00;;;;;;5001611;28;20212;-60
2022/09/03 05:13:27;;;;;;;1.50;1.30;;;13.90;1.00;;;;;;5012939;28;20221;-60
2022/09/03 05:15:58;;;;;;;2.05;1.38;;;13.90;1.00;;;;;;4988025;28;20210;-60
2022/09/03 05:18:25;;;;;;;1.40;1.30;;;13.90;1.00;;;;;;5011115;28;22263;-60
2022/09/03 05:20:58;;;;;;;5.65;1.30;;;13.90;1.00;;;;;;4999352;28;20217;-60
2022/09/03 05:23:26;;;;;;;1.58;1.30;;;13.70;1.00;;;;;;4994805;28;20943;-60
2022/09/03 05:25:58;;;;;;;1.33;1.23;;;14.00;1.00;;;;;;4991837;28;20206;-60
2022/09/03 05:28:26;;;;;;;1.75;1.15;;;14.00;1.00;;;;;;5006273;28;21024;-60
2022/09/03 05:31:04;;;;;;;3.22;1.30;;;14.00;1.00;;;;;;4980727;28;20211;-60
2022/09/03 05:33:34;;;;;;;3.15;1.35;;;14.00;1.00;;;;;;4998479;28;20244;-60
2022/09/03 05:36:03;;;;;;;1.70;1.40;;;14.00;1.00;;;;;;4996283;28;20197;-60
2022/09/03 05:38:31;;;;;;;5.15;1.15;;;14.00;1.00;;;;;;4988034;28;20604;-60
2022/09/03 05:40:58;;;;;;;1.88;1.30;;;13.90;1.00;;;;;;5001513;28;20222;-60
2022/09/03 05:43:25;;;;;;;4.38;1.80;;;14.00;1.00;;;;;;4991399;28;20727;-60
2022/09/03 05:45:53;;;;;;;1.77;1.20;;;13.90;1.00;;;;;;4978228;28;20905;-60
2022/09/03 05:48:19;;;;;;;1.35;1.17;;;14.00;1.00;;;;;;4992621;28;20215;-60
2022/09/03 05:50:47;;;;;;;1.73;1.40;;;14.10;1.00;;;;;;4995908;28;20218;-60
2022/09/03 05:53:16;;;;;;;1.95;1.30;;;14.10;1.00;;;;;;5003934;28;20316;-60
2022/09/03 05:55:44;;;;;;;3.75;1.45;;;14.10;1.00;;;;;;4993735;28;20214;-60
2022/09/03 05:58:11;;;;;;;3.67;1.13;;;14.50;1.00;;;;;;4996669;28;20683;-60
2022/09/03 06:00:38;;;;;;;1.30;1.20;;;;;;;;;;5010978;28;20209;-60
2022/09/03 06:03:05;;;;;;;2.65;1.50;;;14.50;1.00;;;;;;4946186;28;20206;-60
2022/09/03 06:05:31;;;;;;;1.30;1.20;;;14.30;1.00;;;;;;5002908;28;20992;-60
2022/09/03 06:07:58;;;;;;;1.70;1.20;;;14.70;1.00;;;;;;4984696;28;20217;-60
2022/09/03 06:10:25;;;;;;;1.42;1.17;;;15.00;1.00;;;;;;4992634;28;20213;-60
2022/09/03 06:12:53;;;;;;;2.15;1.30;;;14.60;1.00;;;;;;4995895;28;20862;-60
2022/09/03 06:15:20;;;;;;;3.47;1.20;;;14.40;1.00;;;;;;5004327;28;20195;-60
2022/09/03 06:17:46;;;;;;;1.45;1.35;;;14.70;99.90;;;;;;4972663;28;20206;-60
2022/09/03 06:20:13;;;;;;;5.32;1.40;;;14.70;99.90;;;;;;5000977;28;20206;-60
2022/09/03 06:22:40;;;;;;;1.27;1.17;;;14.90;1.00;;;;;;4985951;28;20215;-60
2022/09/03 06:25:08;;;;;;;3.35;1.55;;;14.80;99.90;;;;;;4973350;28;20781;-60
2022/09/03 06:27:35;;;;;;;1.85;1.30;;;15.00;1.00;;;;;;4988883;28;20217;-60
2022/09/03 06:30:05;;;;;;;1.67;1.23;;;15.00;99.90;;;;;;5001876;28;20216;-60
2022/09/03 06:32:32;;;;;;;1.23;1.13;;;15.00;1.00;;;;;;4952129;28;20237;-60
2022/09/03 06:34:58;;;;;;;1.52;1.13;;;15.00;99.90;;;;;;5000102;28;20230;-60
2022/09/03 06:37:25;;;;;;;2.97;1.15;;;15.10;99.90;;;;;;4985765;28;20232;-60
2022/09/03 06:39:53;;;;;;;1.90;1.17;;;15.10;1.00;;;;;;4985526;28;20233;-64
2022/09/03 06:42:21;;;;;;;1.65;1.30;;;14.90;1.00;;;;;;4999917;28;20317;-61
2022/09/03 06:44:50;;;;;;;2.05;1.40;;;15.10;99.90;;;;;;5004122;28;20269;-60
2022/09/03 06:47:18;;;;;;;7.35;1.23;;;15.10;99.90;;;;;;4976457;28;20206;-60
2022/09/03 06:49:45;;;;;;;5.40;1.40;;;15.10;99.90;;;;;;4987230;28;20269;-60
2022/09/03 06:52:12;;;;;;;1.70;1.40;;;15.20;99.90;;;;;;5002659;28;20218;-60
2022/09/03 06:54:39;;;;;;;1.48;1.23;;;15.30;99.90;;;;;;4973412;28;20696;-60
2022/09/03 06:57:06;;;;;;;2.97;1.10;;;15.30;1.00;;;;;;5005642;28;20225;-60
2022/09/03 06:59:33;;;;;;;1.25;1.13;;;15.40;99.90;;;;;;4988024;28;20217;-60
2022/09/03 07:02:02;;;;;;;3.45;1.23;;;15.40;99.90;;;;;;4988621;28;20206;-60
2022/09/03 07:04:33;;;;;;;2.53;1.50;;;15.50;99.90;;;;;;4960267;28;21176;-60
2022/09/03 07:07:01;;;;;;;3.55;1.23;;;15.50;99.90;;;;;;4985880;28;20244;-60
2022/09/03 07:09:28;;;;;;;1.67;1.30;;;17.90;99.90;;;;;;4974648;28;20357;-59
2022/09/03 07:11:55;;;;;;;4.25;1.50;;;15.60;99.90;;;;;;4986500;28;20222;-60
2022/09/03 07:14:23;;;;;;;3.85;1.20;;;15.40;99.90;;;;;;4989875;28;20230;-60
2022/09/03 07:16:50;;;;;;;2.40;1.25;;;15.90;1.00;;;;;;4994256;28;20229;-59
2022/09/03 07:19:17;;;;;;;2.45;1.30;;;15.70;99.90;;;;;;4977546;28;20217;-60
2022/09/03 07:21:45;;;;;;;1.58;1.23;;;15.90;99.90;;;;;;4995196;28;20225;-60
2022/09/03 07:24:12;;;;;;;1.52;1.35;;;15.90;99.90;;;;;;4990685;28;20206;-60
2022/09/03 07:26:43;;;;;;;1.50;1.23;;;15.80;99.90;;;;;;4973518;28;20229;-60
2022/09/03 07:29:11;;;;;;;1.52;1.10;;;16.00;99.90;;;;;;4996580;28;20688;-60
2022/09/03 07:31:40;;;;;;;2.50;1.42;;;16.10;99.90;;;;;;4977743;28;20789;-60
2022/09/03 07:34:09;;;;;;;2.03;1.20;;;16.10;99.90;;;;;;4959963;28;20238;-60
2022/09/03 07:36:40;;;;;;;1.63;1.33;;;16.10;99.90;;;;;;4989725;28;20209;-59
2022/09/03 07:39:10;;;;;;;3.08;1.30;;;16.20;99.90;;;;;;4998063;28;20211;-60
2022/09/03 07:41:37;;;;;;;1.75;1.20;;;16.30;99.90;;;;;;4959312;28;20301;-60
2022/09/03 07:44:05;;;;;;;3.35;1.35;;;16.60;99.90;;;;;;5005754;28;20202;-60
2022/09/03 07:46:34;;;;;;;1.38;1.17;;;16.50;99.90;;;;;;5001950;28;20209;-60
2022/09/03 07:49:02;;;;;;;2.40;1.25;;;16.70;99.90;;;;;;4960766;28;20220;-60
2022/09/03 07:51:31;;;;;;;1.98;0.95;;;16.80;99.90;;;;;;4982636;28;20279;-60
2022/09/03 07:54:00;;;;;;;2.45;1.40;;;17.00;99.90;;;;;;5004410;28;20237;-60
2022/09/03 07:56:30;;;;;;;2.60;1.20;;;17.00;99.90;;;;;;4973644;28;21839;-60
2022/09/03 07:58:57;;;;;;;1.73;1.40;;;17.10;99.90;;;;;;4990793;28;20698;-60
2022/09/03 08:01:27;;;;;;;4.97;1.33;;;17.10;99.90;;;;;;4992214;28;20337;-60
2022/09/03 08:03:54;;;;;;;1.38;1.17;;;17.20;99.90;;;;;;4995721;28;21018;-60
2022/09/03 08:06:23;;;;;;;2.25;1.10;;;17.20;99.90;;;;;;4963001;28;20239;-60
2022/09/03 08:08:57;;;;;;;1.35;1.08;;;17.30;99.90;;;;;;5001866;28;20224;-60
2022/09/03 08:11:26;;;;;;;7.78;1.20;;;17.10;99.90;;;;;;4974473;28;20229;-61
2022/09/03 08:14:00;;;;;;;1.63;1.35;;;17.30;99.90;;;;;;4992568;28;20324;-61
2022/09/03 08:16:28;;;;;;;1.27;1.17;;;17.70;99.90;;;;;;4992610;28;20318;-62
2022/09/03 08:18:55;;;;;;;2.45;1.20;;;17.60;99.90;;;;;;5006428;28;20217;-61
2022/09/03 08:21:23;;;;;;;1.50;1.40;;;17.70;99.90;;;;;;4959493;28;20751;-61
2022/09/03 08:23:51;;;;;;;2.60;1.40;;;17.80;99.90;;;;;;5006491;28;20210;-61
2022/09/03 08:26:20;;;;;;;2.83;1.30;;;17.70;99.90;;;;;;4991565;28;20664;-61
2022/09/03 08:28:48;;;;;;;7.55;1.17;;;17.70;99.90;;;;;;4983758;28;20225;-62
2022/09/03 08:31:18;;;;;;;5.50;1.20;;;17.70;99.90;;;;;;5005866;28;20217;-62
2022/09/03 08:33:46;;;;;;;1.27;1.05;;;17.90;99.90;;;;;;4990958;28;20719;-61
2022/09/03 08:36:16;;;;;;;3.83;1.17;;;17.70;99.90;;;;;;4970484;28;20584;-61
2022/09/03 08:38:45;;;;;;;3.97;1.27;;;17.90;99.90;;;;;;5010322;28;20599;-62
2022/09/03 08:41:15;;;;;;;4.88;1.30;;;18.20;99.90;;;;;;4998221;28;20615;-61
2022/09/03 08:44:09;;;;;;;3.15;1.02;;;17.90;99.90;;;;;;4996381;28;20316;-61
2022/09/03 08:46:47;;;;;;;1.20;1.10;;;17.90;91.60;;;;;;4996808;28;20230;-61
2022/09/03 08:49:19;;;;;;;1.27;1.17;;;18.00;99.90;;;;;;4980177;28;20221;-61
2022/09/03 08:51:48;;;;;;;1.73;1.23;;;18.00;99.90;;;;;;4986237;28;20684;-61
2022/09/03 08:54:16;;;;;;;2.15;0.90;;;18.50;99.90;;;;;;4986059;28;20241;-61
2022/09/03 08:56:43;;;;;;;7.68;1.35;;;18.10;99.90;;;;;;5006620;28;20722;-60
2022/09/03 08:59:10;;;;;;;2.97;1.20;;;18.30;61.10;;;;;;4984067;28;20845;-60
2022/09/03 09:01:47;;;;;;;2.13;1.10;;;18.50;44.40;;;;;;4998977;28;20231;-60
2022/09/03 09:04:27;;;;;;;6.35;1.27;;;18.50;41.70;;;;;;4977731;28;20225;-61
2022/09/03 09:07:01;;;;;;;4.63;1.45;;;16.70;75.60;;;;;;4977555;28;20228;-61
2022/09/03 09:09:33;;;;;;;4.60;1.35;;;18.60;18.90;;;;;;4988447;28;20224;-61
2022/09/03 09:12:09;;;;;;;1.35;1.25;;;18.70;2.10;;;;;;4999176;28;20235;-61
2022/09/03 09:14:41;;;;;;;5.07;1.33;;;18.70;13.40;;;;;;4994011;28;20816;-61
2022/09/03 09:17:23;;;;;;;5.63;1.50;;;18.90;58.00;;;;;;4990968;28;20249;-61
2022/09/03 09:19:58;;;;;;;4.55;1.17;;;18.80;49.60;;;;;;4987459;28;20274;-61
2022/09/03 09:22:30;;;;;;;1.77;1.20;;;19.00;61.70;;;;;;4965295;28;20249;-61
2022/09/03 09:25:00;;;;;;;1.70;1.25;;;18.90;1.50;;;;;;4987926;28;20223;-62
2022/09/03 09:27:28;;;;;;;5.60;1.40;;;19.00;1.00;;;;;;4995356;28;20540;-61
2022/09/03 09:30:01;;;;;;;8.90;1.48;;;19.00;67.80;;;;;;4982583;28;20221;-61
2022/09/03 09:32:30;;;;;;;8.43;1.30;;;19.10;1.00;;;;;;4995654;28;20277;-61
2022/09/03 09:34:57;;;;;;;2.45;1.13;;;19.00;14.60;;;;;;4994944;28;20780;-61
2022/09/03 09:37:24;;;;;;;4.13;1.30;;;19.20;70.10;;;;;;4970938;28;20707;-63
2022/09/03 09:39:56;;;;;;;1.52;1.33;;;19.20;1.00;;;;;;4995295;28;20218;-61
2022/09/03 09:42:24;;;;;;;1.02;0.93;;;19.70;27.70;;;;;;4992974;28;20931;-61
2022/09/03 09:44:51;;;;;;;2.33;1.17;;;19.30;1.00;;;;;;4993187;28;20227;-61
2022/09/03 09:47:24;;;;;;;2.78;0.93;;;19.50;22.00;;;;;;4983215;28;20206;-61
2022/09/03 09:49:54;;;;;;;3.17;1.30;;;19.50;1.00;;;;;;4994599;28;21276;-59
2022/09/03 09:52:24;;;;;;;1.33;1.20;;;18.10;1.00;;;;;;4986364;28;20237;-60
2022/09/03 09:54:52;;;;;;;5.38;1.20;;;19.70;1.00;;;;;;4972932;28;20226;-61
2022/09/03 09:57:23;;;;;;;2.38;1.30;;;19.70;1.00;;;;;;4994547;28;20231;-60
2022/09/03 09:59:50;;;;;;;2.20;1.20;;;19.90;1.00;;;;;;4996937;28;20207;-62
2022/09/03 10:02:26;;;;;;;2.97;1.15;;;19.90;1.00;;;;;;4982110;28;20919;-61
2022/09/03 10:04:59;;;;;;;1.30;0.90;;;20.00;1.00;;;;;;4998057;28;21462;-61
2022/09/03 10:07:30;;;;;;;1.17;1.00;;;20.00;1.00;;;;;;4991306;28;20892;-62
2022/09/03 10:10:07;;;;;;;2.15;1.15;;;19.80;1.00;;;;;;4968704;28;20202;-61
2022/09/03 10:12:40;;;;;;;4.63;1.40;;;20.10;1.00;;;;;;4990058;28;20202;-62
2022/09/03 10:15:24;;;;;;;1.35;1.13;;;20.10;1.00;;;;;;4994513;28;20244;-62
2022/09/03 10:18:02;;;;;;;4.43;1.40;;;20.20;1.00;;;;;;4980356;28;20978;-61
2022/09/03 10:20:39;;;;;;;0.90;0.85;;;18.90;1.00;;;;;;4994381;28;20834;-61
2022/09/03 10:23:14;;;;;;;4.15;1.25;;;20.30;1.00;;;;;;4993088;28;20224;-62
2022/09/03 10:25:52;;;;;;;1.50;1.30;;;20.30;1.00;;;;;;4969973;28;20372;-61
2022/09/03 10:28:23;;;;;;;1.48;1.17;;;20.20;1.00;;;;;;4994061;28;20222;-61
2022/09/03 10:31:16;;;;;;;2.40;0.90;;;20.30;1.00;;;;;;4994393;28;20230;-62
2022/09/03 10:33:49;;;;;;;1.60;1.17;;;20.10;1.00;;;;;;4992902;28;20248;-62
2022/09/03 10:36:22;;;;;;;1.00;1.00;;;20.20;1.00;;;;;;4994006;28;20226;-61
2022/09/03 10:38:54;;;;;;;1.70;1.20;;;20.30;1.00;;;;;;4992523;28;20683;-61
2022/09/03 10:41:37;;;;;;;1.10;1.00;;;20.50;1.00;;;;;;4974343;28;20210;-61
2022/09/03 10:44:23;;;;;;;1.67;1.25;;;20.50;1.00;;;;;;4994646;28;20235;-61
2022/09/03 10:47:01;;;;;;;2.72;1.13;;;21.40;1.00;;;;;;4986267;28;20226;-61
2022/09/03 10:49:37;;;;;;;4.55;1.15;;;20.60;1.00;;;;;;4988653;28;20363;-61
2022/09/03 10:52:14;;;;;;;5.10;1.20;;;20.60;1.00;;;;;;4993249;28;20222;-61
2022/09/03 10:55:05;;;;;;;1.20;1.10;;;20.70;1.00;;;;;;4977971;28;20400;-61
2022/09/03 10:57:40;;;;;;;9.18;1.10;;;20.70;1.00;;;;;;4979916;28;20312;-61
2022/09/03 11:00:10;;;;;;;3.58;1.20;;;20.70;1.00;;;;;;5002595;28;20232;-61
2022/09/03 11:02:54;;;;;;;3.03;1.10;;;20.90;1.00;;;;;;4991248;28;20339;-61
2022/09/03 11:05:28;;;;;;;3.08;1.20;;;21.10;1.00;;;;;;4989738;28;20719;-61
2022/09/03 11:08:05;;;;;;;2.03;1.00;;;21.00;1.00;;;;;;4993386;28;20198;-61
2022/09/03 11:10:33;;;;;;;1.17;1.08;;;21.00;1.00;;;;;;4981758;28;20198;-61
2022/09/03 11:13:06;;;;;;;1.27;0.90;;;21.00;1.00;;;;;;4997924;28;20694;-61
2022/09/03 11:15:37;;;;;;;1.30;1.20;;;21.20;1.00;;;;;;4994424;28;20238;-60
2022/09/03 11:18:20;;;;;;;3.05;1.25;;;20.90;1.00;;;;;;4984053;28;20230;-60
2022/09/03 11:20:49;;;;;;;1.20;1.10;;;21.10;1.00;;;;;;4988138;28;20229;-60
2022/09/03 11:23:19;;;;;;;1.70;1.20;;;21.00;1.00;;;;;;4994176;28;20316;-62
2022/09/03 11:25:50;;;;;;;1.65;1.08;;;21.10;1.00;;;;;;5000222;28;20226;-62
2022/09/03 11:28:30;;;;;;;1.27;1.00;;;21.20;1.00;;;;;;4984993;28;20301;-61
2022/09/03 11:31:13;;;;;;;1.75;0.98;;;21.10;1.00;;;;;;4996675;28;20571;-62
2022/09/03 11:33:46;;;;;;;1.08;1.00;;;21.10;1.00;;;;;;5004972;28;20336;-62
2022/09/03 11:36:13;;;;;;;4.18;1.17;;;21.30;1.00;;;;;;4998234;28;20225;-62
2022/09/03 11:38:41;;;;;;;1.10;1.00;;;21.30;1.00;;;;;;4995515;28;20206;-61
2022/09/03 11:41:14;;;;;;;1.33;1.20;;;21.40;1.00;;;;;;5008528;28;20264;-62
2022/09/03 11:43:42;;;;;;;1.38;1.00;;;21.50;1.00;;;;;;4985566;28;20209;-60
2022/09/03 11:46:12;;;;;;;1.38;1.20;;;21.70;1.00;;;;;;4997859;28;21319;-60
2022/09/03 11:48:43;;;;;;;0.75;0.75;;;21.50;1.00;;;;;;5007311;28;20198;-61
2022/09/03 11:51:34;;;;;;;1.30;1.20;;;21.50;1.00;;;;;;5009802;28;20241;-62
2022/09/03 11:54:04;;;;;;;4.07;1.10;;;21.50;1.00;;;;;;5001349;28;20603;-61
2022/09/03 11:56:33;;;;;;;2.92;1.30;;;21.50;1.00;;;;;;5006057;28;20663;-61
2022/09/03 11:59:04;;;;;;;2.58;0.98;;;21.50;1.00;;;;;;4982169;28;20575;-62
2022/09/03 12:01:33;;;;;;;1.27;0.90;;;21.60;1.00;;;;;;5001427;28;20202;-62
2022/09/03 12:04:03;;;;;;;1.45;1.08;;;21.50;1.00;;;;;;5007575;28;20667;-62
2022/09/03 12:06:43;;;;;;;3.20;1.25;;;21.60;1.00;;;;;;5007055;28;20202;-62
2022/09/03 12:09:28;;;;;;;0.90;0.90;;;21.70;1.00;;;;;;4992049;28;20198;-62
2022/09/03 12:12:05;;;;;;;4.00;1.20;;;21.80;1.00;;;;;;5005850;28;20959;-62
2022/09/03 12:14:42;;;;;;;0.98;0.93;;;21.80;1.00;;;;;;4981775;28;20279;-62
2022/09/03 12:17:21;;;;;;;2.88;1.33;;;21.80;1.00;;;;;;4995791;28;20251;-62
2022/09/03 12:19:52;;;;;;;1.27;1.00;;;21.80;1.00;;;;;;5005199;28;20198;-62
2022/09/03 12:22:21;;;;;;;1.75;1.13;;;21.80;1.00;;;;;;4997010;28;20202;-62
2022/09/03 12:24:50;;;;;;;1.42;0.90;;;21.60;1.00;;;;;;4996660;28;20576;-62
2022/09/03 12:27:23;;;;;;;1.15;1.08;;;21.70;1.00;;;;;;4998331;28;20890;-62
2022/09/03 12:29:56;;;;;;;3.22;1.10;;;21.40;1.00;;;;;;4980887;28;20593;-62
2022/09/03 12:32:25;;;;;;;1.58;1.08;;;21.60;1.00;;;;;;4981870;28;20425;-61
2022/09/03 12:34:52;;;;;;;0.90;0.90;;;21.60;1.00;;;;;;5005868;28;20313;-61
2022/09/03 12:37:22;;;;;;;1.58;0.95;;;21.60;1.00;;;;;;4993706;28;20258;-60
2022/09/03 12:39:55;;;;;;;1.95;1.00;;;21.70;1.00;;;;;;4995067;28;20222;-60
2022/09/03 12:42:27;;;;;;;1.20;1.10;;;21.70;1.00;;;;;;5004261;28;20236;-61
2022/09/03 12:44:54;;;;;;;4.35;1.00;;;21.70;1.00;;;;;;4980028;28;20226;-60
2022/09/03 12:47:24;;;;;;;5.70;1.05;;;21.80;1.00;;;;;;4983597;28;20249;-61
2022/09/03 12:49:53;;;;;;;1.20;1.10;;;21.80;1.00;;;;;;5003254;28;20209;-61
2022/09/03 12:52:25;;;;;;;4.07;1.05;;;21.80;1.00;;;;;;4993259;28;20210;-60
2022/09/03 12:55:39;;;;;;;6.28;1.10;;;21.80;1.00;;;;;;4992521;28;20253;-62
2022/09/03 12:58:12;;;;;;;2.63;1.05;;;22.00;1.00;;;;;;4986011;28;20222;-60
2022/09/03 13:00:45;;;;;;;1.02;0.90;;;22.00;1.00;;;;;;4981957;28;20218;-61
2022/09/03 13:03:17;;;;;;;2.08;1.10;;;21.90;1.00;;;;;;4983067;28;20222;-60
2022/09/03 13:05:45;;;;;;;5.32;1.10;;;22.00;1.00;;;;;;5004161;28;20209;-60
2022/09/03 13:08:19;;;;;;;1.27;1.17;;;22.00;1.00;;;;;;4994236;28;20221;-61
2022/09/03 13:10:49;;;;;;;1.38;1.00;;;21.90;1.00;;;;;;5003870;28;20874;-61